sensor_id;sensor_type;location;lat;lon;timestamp;P1;durP1;ratioP1;P2;durP2;ratioP2
44197;SDS011;30157;55.512;37.764;2023-06-22T00:01:18;7.97;;;5.30;;
44197;SDS011;30157;55.512;37.764;2023-06-22T00:03:44;11.40;;;6.13;;
44197;SDS011;30157;55.512;37.764;2023-06-22T00:06:09;12.15;;;6.00;;
44197;SDS011;30157;55.512;37.764;2023-06-22T00:08:35;13.85;;;6.10;;
44197;SDS011;30157;55.512;37.764;2023-06-22T00:11:01;11.02;;;5.50;;
44197;SDS011;30157;55.512;37.764;2023-06-22T00:13:27;15.20;;;6.90;;
44197;SDS011;30157;55.512;37.764;2023-06-22T00:15:52;12.05;;;5.85;;
44197;SDS011;30157;55.512;37.764;2023-06-22T00:18:18;10.40;;;6.28;;
44197;SDS011;30157;55.512;37.764;2023-06-22T00:20:45;14.30;;;6.70;;
44197;SDS011;30157;55.512;37.764;2023-06-22T00:23:12;13.02;;;5.95;;
44197;SDS011;30157;55.512;37.764;2023-06-22T00:25:41;11.27;;;5.65;;
44197;SDS011;30157;55.512;37.764;2023-06-22T00:28:07;12.48;;;6.07;;
44197;SDS011;30157;55.512;37.764;2023-06-22T00:30:35;12.23;;;6.32;;
44197;SDS011;30157;55.512;37.764;2023-06-22T00:33:01;12.55;;;6.13;;
44197;SDS011;30157;55.512;37.764;2023-06-22T00:35:27;9.93;;;5.50;;
44197;SDS011;30157;55.512;37.764;2023-06-22T00:37:55;13.50;;;6.20;;
44197;SDS011;30157;55.512;37.764;2023-06-22T00:42:57;11.30;;;5.72;;
44197;SDS011;30157;55.512;37.764;2023-06-22T00:45:23;9.98;;;5.75;;
44197;SDS011;30157;55.512;37.764;2023-06-22T00:47:53;9.70;;;5.70;;
44197;SDS011;30157;55.512;37.764;2023-06-22T00:50:20;11.70;;;5.80;;
44197;SDS011;30157;55.512;37.764;2023-06-22T00:52:51;11.65;;;5.32;;
44197;SDS011;30157;55.512;37.764;2023-06-22T00:55:19;9.70;;;5.63;;
44197;SDS011;30157;55.512;37.764;2023-06-22T00:57:47;11.75;;;5.97;;
44197;SDS011;30157;55.512;37.764;2023-06-22T01:00:14;9.82;;;5.65;;
44197;SDS011;30157;55.512;37.764;2023-06-22T01:02:43;13.93;;;5.93;;
44197;SDS011;30157;55.512;37.764;2023-06-22T01:05:13;9.55;;;6.13;;
44197;SDS011;30157;55.512;37.764;2023-06-22T01:07:42;13.35;;;5.85;;
44197;SDS011;30157;55.512;37.764;2023-06-22T01:10:32;12.52;;;6.22;;
44197;SDS011;30157;55.512;37.764;2023-06-22T01:15:51;9.95;;;6.15;;
44197;SDS011;30157;55.512;37.764;2023-06-22T01:18:25;12.90;;;6.20;;
44197;SDS011;30157;55.512;37.764;2023-06-22T01:20:53;11.15;;;6.00;;
44197;SDS011;30157;55.512;37.764;2023-06-22T01:23:27;10.77;;;5.82;;
44197;SDS011;30157;55.512;37.764;2023-06-22T01:26:04;10.60;;;5.72;;
44197;SDS011;30157;55.512;37.764;2023-06-22T01:31:23;7.40;;;5.85;;
44197;SDS011;30157;55.512;37.764;2023-06-22T01:33:51;9.88;;;6.10;;
44197;SDS011;30157;55.512;37.764;2023-06-22T01:36:20;7.50;;;5.65;;
44197;SDS011;30157;55.512;37.764;2023-06-22T01:38:48;9.70;;;5.80;;
44197;SDS011;30157;55.512;37.764;2023-06-22T01:41:16;10.32;;;5.82;;
44197;SDS011;30157;55.512;37.764;2023-06-22T01:43:45;11.23;;;5.93;;
44197;SDS011;30157;55.512;37.764;2023-06-22T01:46:12;8.98;;;5.68;;
44197;SDS011;30157;55.512;37.764;2023-06-22T01:48:39;11.45;;;6.28;;
44197;SDS011;30157;55.512;37.764;2023-06-22T01:51:05;9.00;;;6.13;;
44197;SDS011;30157;55.512;37.764;2023-06-22T01:53:31;8.32;;;5.95;;
44197;SDS011;30157;55.512;37.764;2023-06-22T01:55:57;10.35;;;6.25;;
44197;SDS011;30157;55.512;37.764;2023-06-22T01:58:28;9.75;;;5.47;;
44197;SDS011;30157;55.512;37.764;2023-06-22T02:01:00;10.98;;;5.75;;
44197;SDS011;30157;55.512;37.764;2023-06-22T02:03:37;8.77;;;6.00;;
44197;SDS011;30157;55.512;37.764;2023-06-22T02:06:08;13.48;;;6.60;;
44197;SDS011;30157;55.512;37.764;2023-06-22T02:08:41;11.80;;;6.72;;
44197;SDS011;30157;55.512;37.764;2023-06-22T02:11:11;15.57;;;7.15;;
44197;SDS011;30157;55.512;37.764;2023-06-22T02:13:40;9.93;;;6.32;;
44197;SDS011;30157;55.512;37.764;2023-06-22T02:16:09;11.82;;;7.00;;
44197;SDS011;30157;55.512;37.764;2023-06-22T02:18:45;10.10;;;6.47;;
44197;SDS011;30157;55.512;37.764;2023-06-22T02:21:21;9.50;;;6.15;;
44197;SDS011;30157;55.512;37.764;2023-06-22T02:23:47;15.45;;;6.88;;
44197;SDS011;30157;55.512;37.764;2023-06-22T02:26:13;11.98;;;6.72;;
44197;SDS011;30157;55.512;37.764;2023-06-22T02:28:41;10.75;;;6.30;;
44197;SDS011;30157;55.512;37.764;2023-06-22T02:31:08;12.95;;;6.25;;
44197;SDS011;30157;55.512;37.764;2023-06-22T02:33:34;12.15;;;6.05;;
44197;SDS011;30157;55.512;37.764;2023-06-22T02:36:00;12.55;;;6.25;;
44197;SDS011;30157;55.512;37.764;2023-06-22T02:38:31;11.35;;;6.28;;
44197;SDS011;30157;55.512;37.764;2023-06-22T02:40:58;9.95;;;6.25;;
44197;SDS011;30157;55.512;37.764;2023-06-22T02:43:24;14.05;;;8.52;;
44197;SDS011;30157;55.512;37.764;2023-06-22T02:45:50;16.02;;;10.32;;
44197;SDS011;30157;55.512;37.764;2023-06-22T02:48:16;10.88;;;6.97;;
44197;SDS011;30157;55.512;37.764;2023-06-22T02:50:42;9.32;;;6.88;;
44197;SDS011;30157;55.512;37.764;2023-06-22T02:53:08;11.05;;;7.03;;
44197;SDS011;30157;55.512;37.764;2023-06-22T02:55:37;9.63;;;6.22;;
44197;SDS011;30157;55.512;37.764;2023-06-22T02:58:05;8.90;;;6.88;;
44197;SDS011;30157;55.512;37.764;2023-06-22T03:00:33;9.30;;;7.13;;
44197;SDS011;30157;55.512;37.764;2023-06-22T03:03:00;10.57;;;6.93;;
44197;SDS011;30157;55.512;37.764;2023-06-22T03:05:26;8.05;;;6.38;;
44197;SDS011;30157;55.512;37.764;2023-06-22T03:07:53;8.50;;;6.25;;
44197;SDS011;30157;55.512;37.764;2023-06-22T03:10:19;10.45;;;6.55;;
44197;SDS011;30157;55.512;37.764;2023-06-22T03:12:45;12.05;;;7.35;;
44197;SDS011;30157;55.512;37.764;2023-06-22T03:15:12;9.30;;;6.80;;
44197;SDS011;30157;55.512;37.764;2023-06-22T03:17:39;10.40;;;6.70;;
44197;SDS011;30157;55.512;37.764;2023-06-22T03:20:08;8.88;;;6.90;;
44197;SDS011;30157;55.512;37.764;2023-06-22T03:22:40;11.07;;;7.50;;
44197;SDS011;30157;55.512;37.764;2023-06-22T03:25:07;13.07;;;7.78;;
44197;SDS011;30157;55.512;37.764;2023-06-22T03:27:41;16.00;;;7.78;;
44197;SDS011;30157;55.512;37.764;2023-06-22T03:30:11;13.98;;;9.07;;
44197;SDS011;30157;55.512;37.764;2023-06-22T03:32:37;15.00;;;8.73;;
44197;SDS011;30157;55.512;37.764;2023-06-22T03:35:05;13.57;;;8.55;;
44197;SDS011;30157;55.512;37.764;2023-06-22T03:37:33;14.05;;;8.27;;
44197;SDS011;30157;55.512;37.764;2023-06-22T03:39:59;14.50;;;7.63;;
44197;SDS011;30157;55.512;37.764;2023-06-22T03:42:25;15.57;;;8.30;;
44197;SDS011;30157;55.512;37.764;2023-06-22T03:44:51;15.40;;;8.52;;
44197;SDS011;30157;55.512;37.764;2023-06-22T03:47:18;15.85;;;8.65;;
44197;SDS011;30157;55.512;37.764;2023-06-22T03:49:44;14.18;;;7.55;;
44197;SDS011;30157;55.512;37.764;2023-06-22T03:52:10;13.15;;;7.95;;
44197;SDS011;30157;55.512;37.764;2023-06-22T03:54:36;16.77;;;8.75;;
44197;SDS011;30157;55.512;37.764;2023-06-22T03:57:02;13.68;;;8.02;;
44197;SDS011;30157;55.512;37.764;2023-06-22T03:59:28;13.73;;;7.30;;
44197;SDS011;30157;55.512;37.764;2023-06-22T04:01:53;13.30;;;7.80;;
44197;SDS011;30157;55.512;37.764;2023-06-22T04:04:19;13.65;;;7.38;;
44197;SDS011;30157;55.512;37.764;2023-06-22T04:06:46;12.10;;;7.72;;
44197;SDS011;30157;55.512;37.764;2023-06-22T04:09:12;13.35;;;7.65;;
44197;SDS011;30157;55.512;37.764;2023-06-22T04:11:38;12.43;;;7.20;;
44197;SDS011;30157;55.512;37.764;2023-06-22T04:14:04;11.35;;;7.30;;
44197;SDS011;30157;55.512;37.764;2023-06-22T04:16:30;12.68;;;6.85;;
44197;SDS011;30157;55.512;37.764;2023-06-22T04:18:56;10.93;;;6.80;;
44197;SDS011;30157;55.512;37.764;2023-06-22T04:21:21;14.80;;;8.48;;
44197;SDS011;30157;55.512;37.764;2023-06-22T04:23:47;10.02;;;6.88;;
44197;SDS011;30157;55.512;37.764;2023-06-22T04:26:13;11.18;;;6.40;;
44197;SDS011;30157;55.512;37.764;2023-06-22T04:28:40;12.48;;;6.80;;
44197;SDS011;30157;55.512;37.764;2023-06-22T04:31:06;11.68;;;7.55;;
44197;SDS011;30157;55.512;37.764;2023-06-22T04:33:32;9.73;;;6.57;;
44197;SDS011;30157;55.512;37.764;2023-06-22T04:35:58;13.05;;;6.50;;
44197;SDS011;30157;55.512;37.764;2023-06-22T04:38:26;12.13;;;7.10;;
44197;SDS011;30157;55.512;37.764;2023-06-22T04:40:52;12.70;;;7.10;;
44197;SDS011;30157;55.512;37.764;2023-06-22T04:43:19;11.68;;;6.40;;
44197;SDS011;30157;55.512;37.764;2023-06-22T04:45:45;10.02;;;6.00;;
44197;SDS011;30157;55.512;37.764;2023-06-22T04:48:11;9.20;;;6.50;;
44197;SDS011;30157;55.512;37.764;2023-06-22T04:50:42;10.32;;;6.13;;
44197;SDS011;30157;55.512;37.764;2023-06-22T04:53:08;11.13;;;5.68;;
44197;SDS011;30157;55.512;37.764;2023-06-22T04:55:35;10.45;;;6.63;;
44197;SDS011;30157;55.512;37.764;2023-06-22T04:58:03;15.35;;;7.70;;
44197;SDS011;30157;55.512;37.764;2023-06-22T05:00:30;8.65;;;6.38;;
44197;SDS011;30157;55.512;37.764;2023-06-22T05:02:56;10.40;;;6.80;;
44197;SDS011;30157;55.512;37.764;2023-06-22T05:05:23;8.65;;;6.10;;
44197;SDS011;30157;55.512;37.764;2023-06-22T05:07:50;8.70;;;6.38;;
44197;SDS011;30157;55.512;37.764;2023-06-22T05:10:19;7.40;;;5.60;;
44197;SDS011;30157;55.512;37.764;2023-06-22T05:12:45;11.32;;;6.53;;
44197;SDS011;30157;55.512;37.764;2023-06-22T05:15:12;8.57;;;5.82;;
44197;SDS011;30157;55.512;37.764;2023-06-22T05:17:38;8.43;;;5.32;;
44197;SDS011;30157;55.512;37.764;2023-06-22T05:20:09;9.23;;;5.28;;
44197;SDS011;30157;55.512;37.764;2023-06-22T05:22:35;8.95;;;5.00;;
44197;SDS011;30157;55.512;37.764;2023-06-22T05:25:01;11.70;;;5.07;;
44197;SDS011;30157;55.512;37.764;2023-06-22T05:27:29;7.72;;;4.70;;
44197;SDS011;30157;55.512;37.764;2023-06-22T05:29:54;9.88;;;5.13;;
44197;SDS011;30157;55.512;37.764;2023-06-22T05:32:20;6.75;;;4.40;;
44197;SDS011;30157;55.512;37.764;2023-06-22T05:34:46;8.35;;;4.30;;
44197;SDS011;30157;55.512;37.764;2023-06-22T05:37:12;7.22;;;4.45;;
44197;SDS011;30157;55.512;37.764;2023-06-22T05:39:38;7.38;;;4.20;;
44197;SDS011;30157;55.512;37.764;2023-06-22T05:42:04;6.55;;;3.67;;
44197;SDS011;30157;55.512;37.764;2023-06-22T05:44:31;4.95;;;3.40;;
44197;SDS011;30157;55.512;37.764;2023-06-22T05:46:58;4.93;;;3.55;;
44197;SDS011;30157;55.512;37.764;2023-06-22T05:49:24;4.47;;;3.28;;
44197;SDS011;30157;55.512;37.764;2023-06-22T05:51:55;6.60;;;3.40;;
44197;SDS011;30157;55.512;37.764;2023-06-22T05:54:22;6.32;;;3.50;;
44197;SDS011;30157;55.512;37.764;2023-06-22T05:56:48;6.75;;;3.67;;
44197;SDS011;30157;55.512;37.764;2023-06-22T05:59:13;4.43;;;3.03;;
44197;SDS011;30157;55.512;37.764;2023-06-22T06:01:39;5.38;;;3.17;;
44197;SDS011;30157;55.512;37.764;2023-06-22T06:04:05;5.13;;;3.13;;
44197;SDS011;30157;55.512;37.764;2023-06-22T06:06:33;3.85;;;2.83;;
44197;SDS011;30157;55.512;37.764;2023-06-22T06:09:00;5.03;;;3.50;;
44197;SDS011;30157;55.512;37.764;2023-06-22T06:11:26;3.75;;;3.03;;
44197;SDS011;30157;55.512;37.764;2023-06-22T06:13:52;3.72;;;3.10;;
44197;SDS011;30157;55.512;37.764;2023-06-22T06:16:18;4.45;;;3.25;;
44197;SDS011;30157;55.512;37.764;2023-06-22T06:18:43;5.22;;;3.40;;
44197;SDS011;30157;55.512;37.764;2023-06-22T06:21:09;5.38;;;3.30;;
44197;SDS011;30157;55.512;37.764;2023-06-22T06:23:35;5.78;;;3.03;;
44197;SDS011;30157;55.512;37.764;2023-06-22T06:26:01;5.20;;;3.28;;
44197;SDS011;30157;55.512;37.764;2023-06-22T06:28:26;4.05;;;3.05;;
44197;SDS011;30157;55.512;37.764;2023-06-22T06:30:52;5.78;;;3.25;;
44197;SDS011;30157;55.512;37.764;2023-06-22T06:33:19;3.40;;;3.08;;
44197;SDS011;30157;55.512;37.764;2023-06-22T06:35:46;3.30;;;3.00;;
44197;SDS011;30157;55.512;37.764;2023-06-22T06:38:12;6.70;;;3.20;;
44197;SDS011;30157;55.512;37.764;2023-06-22T06:40:38;5.20;;;3.20;;
44197;SDS011;30157;55.512;37.764;2023-06-22T06:43:03;4.32;;;2.75;;
44197;SDS011;30157;55.512;37.764;2023-06-22T06:45:29;4.60;;;3.00;;
44197;SDS011;30157;55.512;37.764;2023-06-22T06:47:58;3.33;;;2.90;;
44197;SDS011;30157;55.512;37.764;2023-06-22T06:50:23;4.95;;;3.20;;
44197;SDS011;30157;55.512;37.764;2023-06-22T06:52:49;4.95;;;3.15;;
44197;SDS011;30157;55.512;37.764;2023-06-22T06:55:18;3.95;;;3.30;;
44197;SDS011;30157;55.512;37.764;2023-06-22T06:57:45;3.90;;;2.95;;
44197;SDS011;30157;55.512;37.764;2023-06-22T07:00:13;4.22;;;2.38;;
44197;SDS011;30157;55.512;37.764;2023-06-22T07:02:43;6.03;;;2.60;;
44197;SDS011;30157;55.512;37.764;2023-06-22T07:05:11;5.18;;;3.00;;
44197;SDS011;30157;55.512;37.764;2023-06-22T07:07:37;4.80;;;3.78;;
44197;SDS011;30157;55.512;37.764;2023-06-22T07:10:04;4.03;;;2.70;;
44197;SDS011;30157;55.512;37.764;2023-06-22T07:12:31;3.55;;;2.90;;
44197;SDS011;30157;55.512;37.764;2023-06-22T07:15:06;3.90;;;3.10;;
44197;SDS011;30157;55.512;37.764;2023-06-22T07:17:34;4.55;;;3.10;;
44197;SDS011;30157;55.512;37.764;2023-06-22T07:20:01;3.53;;;3.00;;
44197;SDS011;30157;55.512;37.764;2023-06-22T07:22:29;3.38;;;2.85;;
44197;SDS011;30157;55.512;37.764;2023-06-22T07:24:55;3.70;;;2.88;;
44197;SDS011;30157;55.512;37.764;2023-06-22T07:27:21;4.53;;;2.90;;
44197;SDS011;30157;55.512;37.764;2023-06-22T07:29:47;3.50;;;3.15;;
44197;SDS011;30157;55.512;37.764;2023-06-22T07:32:13;3.60;;;3.20;;
44197;SDS011;30157;55.512;37.764;2023-06-22T07:34:39;5.63;;;3.30;;
44197;SDS011;30157;55.512;37.764;2023-06-22T07:37:04;3.28;;;2.90;;
44197;SDS011;30157;55.512;37.764;2023-06-22T07:39:30;3.90;;;3.20;;
44197;SDS011;30157;55.512;37.764;2023-06-22T07:41:56;3.33;;;3.00;;
44197;SDS011;30157;55.512;37.764;2023-06-22T07:44:21;4.82;;;3.20;;
44197;SDS011;30157;55.512;37.764;2023-06-22T07:46:47;3.97;;;3.28;;
44197;SDS011;30157;55.512;37.764;2023-06-22T07:49:13;4.78;;;3.50;;
44197;SDS011;30157;55.512;37.764;2023-06-22T07:51:39;5.55;;;2.95;;
44197;SDS011;30157;55.512;37.764;2023-06-22T07:54:04;5.80;;;3.08;;
44197;SDS011;30157;55.512;37.764;2023-06-22T07:56:30;4.57;;;3.00;;
44197;SDS011;30157;55.512;37.764;2023-06-22T07:58:56;4.90;;;3.10;;
44197;SDS011;30157;55.512;37.764;2023-06-22T08:01:23;4.57;;;3.05;;
44197;SDS011;30157;55.512;37.764;2023-06-22T08:03:49;4.50;;;3.10;;
44197;SDS011;30157;55.512;37.764;2023-06-22T08:06:15;5.20;;;3.38;;
44197;SDS011;30157;55.512;37.764;2023-06-22T08:08:41;4.55;;;3.42;;
44197;SDS011;30157;55.512;37.764;2023-06-22T08:11:08;5.43;;;3.00;;
44197;SDS011;30157;55.512;37.764;2023-06-22T08:13:34;4.10;;;3.10;;
44197;SDS011;30157;55.512;37.764;2023-06-22T08:16:00;4.45;;;2.83;;
44197;SDS011;30157;55.512;37.764;2023-06-22T08:18:26;3.65;;;2.83;;
44197;SDS011;30157;55.512;37.764;2023-06-22T08:20:52;4.00;;;2.80;;
44197;SDS011;30157;55.512;37.764;2023-06-22T08:23:18;3.08;;;2.78;;
44197;SDS011;30157;55.512;37.764;2023-06-22T08:25:44;4.50;;;3.15;;
44197;SDS011;30157;55.512;37.764;2023-06-22T08:28:11;4.03;;;3.42;;
44197;SDS011;30157;55.512;37.764;2023-06-22T08:30:38;3.63;;;3.13;;
44197;SDS011;30157;55.512;37.764;2023-06-22T08:33:04;4.53;;;2.85;;
44197;SDS011;30157;55.512;37.764;2023-06-22T08:35:30;4.35;;;3.35;;
44197;SDS011;30157;55.512;37.764;2023-06-22T08:37:55;4.28;;;3.13;;
44197;SDS011;30157;55.512;37.764;2023-06-22T08:40:22;4.47;;;2.80;;
44197;SDS011;30157;55.512;37.764;2023-06-22T08:42:48;3.72;;;2.90;;
44197;SDS011;30157;55.512;37.764;2023-06-22T08:45:14;4.80;;;3.30;;
44197;SDS011;30157;55.512;37.764;2023-06-22T08:47:41;3.95;;;3.00;;
44197;SDS011;30157;55.512;37.764;2023-06-22T08:50:08;4.22;;;2.95;;
44197;SDS011;30157;55.512;37.764;2023-06-22T08:52:35;4.57;;;3.08;;
44197;SDS011;30157;55.512;37.764;2023-06-22T08:55:01;3.25;;;2.95;;
44197;SDS011;30157;55.512;37.764;2023-06-22T08:57:32;4.15;;;3.20;;
44197;SDS011;30157;55.512;37.764;2023-06-22T08:59:58;5.00;;;3.28;;
44197;SDS011;30157;55.512;37.764;2023-06-22T09:02:25;3.95;;;3.13;;
44197;SDS011;30157;55.512;37.764;2023-06-22T09:04:51;4.50;;;3.15;;
44197;SDS011;30157;55.512;37.764;2023-06-22T09:07:21;5.00;;;3.10;;
44197;SDS011;30157;55.512;37.764;2023-06-22T09:09:48;3.10;;;2.78;;
44197;SDS011;30157;55.512;37.764;2023-06-22T09:12:14;4.68;;;2.90;;
44197;SDS011;30157;55.512;37.764;2023-06-22T09:14:40;3.42;;;2.90;;
44197;SDS011;30157;55.512;37.764;2023-06-22T09:17:06;5.80;;;3.30;;
44197;SDS011;30157;55.512;37.764;2023-06-22T09:19:32;3.78;;;3.10;;
44197;SDS011;30157;55.512;37.764;2023-06-22T09:21:58;3.40;;;3.08;;
44197;SDS011;30157;55.512;37.764;2023-06-22T09:24:24;3.70;;;3.10;;
44197;SDS011;30157;55.512;37.764;2023-06-22T09:26:50;4.63;;;3.10;;
44197;SDS011;30157;55.512;37.764;2023-06-22T09:29:16;5.93;;;3.20;;
44197;SDS011;30157;55.512;37.764;2023-06-22T09:31:42;6.32;;;2.90;;
44197;SDS011;30157;55.512;37.764;2023-06-22T09:34:07;5.93;;;2.88;;
44197;SDS011;30157;55.512;37.764;2023-06-22T09:36:33;4.78;;;3.00;;
44197;SDS011;30157;55.512;37.764;2023-06-22T09:38:59;2.95;;;2.65;;
44197;SDS011;30157;55.512;37.764;2023-06-22T09:41:31;3.72;;;3.00;;
44197;SDS011;30157;55.512;37.764;2023-06-22T09:43:57;2.90;;;2.50;;
44197;SDS011;30157;55.512;37.764;2023-06-22T09:46:22;3.83;;;2.85;;
44197;SDS011;30157;55.512;37.764;2023-06-22T09:48:50;4.03;;;2.70;;
44197;SDS011;30157;55.512;37.764;2023-06-22T09:51:16;6.50;;;2.60;;
44197;SDS011;30157;55.512;37.764;2023-06-22T09:53:42;3.15;;;2.50;;
44197;SDS011;30157;55.512;37.764;2023-06-22T09:56:09;3.33;;;2.67;;
44197;SDS011;30157;55.512;37.764;2023-06-22T09:58:43;4.88;;;2.55;;
44197;SDS011;30157;55.512;37.764;2023-06-22T10:01:10;4.15;;;3.25;;
44197;SDS011;30157;55.512;37.764;2023-06-22T10:03:36;5.45;;;2.80;;
44197;SDS011;30157;55.512;37.764;2023-06-22T10:06:02;4.72;;;2.85;;
44197;SDS011;30157;55.512;37.764;2023-06-22T10:08:28;3.78;;;2.70;;
44197;SDS011;30157;55.512;37.764;2023-06-22T10:10:54;3.78;;;2.90;;
44197;SDS011;30157;55.512;37.764;2023-06-22T10:13:20;4.85;;;2.63;;
44197;SDS011;30157;55.512;37.764;2023-06-22T10:15:45;4.47;;;3.05;;
44197;SDS011;30157;55.512;37.764;2023-06-22T10:18:15;7.45;;;2.92;;
44197;SDS011;30157;55.512;37.764;2023-06-22T10:20:42;4.13;;;3.42;;
44197;SDS011;30157;55.512;37.764;2023-06-22T10:23:07;3.70;;;3.20;;
44197;SDS011;30157;55.512;37.764;2023-06-22T10:25:33;3.17;;;2.88;;
44197;SDS011;30157;55.512;37.764;2023-06-22T10:27:59;4.38;;;3.13;;
44197;SDS011;30157;55.512;37.764;2023-06-22T10:30:24;4.40;;;3.00;;
44197;SDS011;30157;55.512;37.764;2023-06-22T10:32:50;3.88;;;2.80;;
44197;SDS011;30157;55.512;37.764;2023-06-22T10:35:16;4.20;;;3.15;;
44197;SDS011;30157;55.512;37.764;2023-06-22T10:37:45;4.03;;;3.17;;
44197;SDS011;30157;55.512;37.764;2023-06-22T10:40:15;6.03;;;3.33;;
44197;SDS011;30157;55.512;37.764;2023-06-22T10:42:44;3.22;;;2.88;;
44197;SDS011;30157;55.512;37.764;2023-06-22T10:45:10;4.28;;;3.05;;
44197;SDS011;30157;55.512;37.764;2023-06-22T10:47:36;4.10;;;3.58;;
44197;SDS011;30157;55.512;37.764;2023-06-22T10:50:02;4.13;;;3.30;;
44197;SDS011;30157;55.512;37.764;2023-06-22T10:52:30;4.20;;;3.13;;
44197;SDS011;30157;55.512;37.764;2023-06-22T10:54:56;5.05;;;3.28;;
44197;SDS011;30157;55.512;37.764;2023-06-22T10:57:22;3.70;;;3.40;;
44197;SDS011;30157;55.512;37.764;2023-06-22T10:59:48;4.03;;;3.42;;
44197;SDS011;30157;55.512;37.764;2023-06-22T11:02:14;4.72;;;3.85;;
44197;SDS011;30157;55.512;37.764;2023-06-22T11:04:39;4.45;;;3.13;;
44197;SDS011;30157;55.512;37.764;2023-06-22T11:07:05;6.18;;;3.42;;
44197;SDS011;30157;55.512;37.764;2023-06-22T11:09:31;4.80;;;3.83;;
44197;SDS011;30157;55.512;37.764;2023-06-22T11:11:57;4.88;;;3.33;;
44197;SDS011;30157;55.512;37.764;2023-06-22T11:14:24;4.53;;;3.55;;
44197;SDS011;30157;55.512;37.764;2023-06-22T11:16:50;4.45;;;3.15;;
44197;SDS011;30157;55.512;37.764;2023-06-22T11:19:16;5.85;;;3.33;;
44197;SDS011;30157;55.512;37.764;2023-06-22T11:21:42;5.22;;;3.55;;
44197;SDS011;30157;55.512;37.764;2023-06-22T11:24:08;4.47;;;3.00;;
44197;SDS011;30157;55.512;37.764;2023-06-22T11:26:34;3.88;;;2.88;;
44197;SDS011;30157;55.512;37.764;2023-06-22T11:29:00;4.75;;;3.15;;
44197;SDS011;30157;55.512;37.764;2023-06-22T11:31:26;4.25;;;3.38;;
44197;SDS011;30157;55.512;37.764;2023-06-22T11:33:52;3.28;;;2.97;;
44197;SDS011;30157;55.512;37.764;2023-06-22T11:36:18;5.35;;;3.60;;
44197;SDS011;30157;55.512;37.764;2023-06-22T11:38:44;5.00;;;3.30;;
44197;SDS011;30157;55.512;37.764;2023-06-22T11:41:10;4.63;;;3.17;;
44197;SDS011;30157;55.512;37.764;2023-06-22T11:43:36;6.38;;;3.38;;
44197;SDS011;30157;55.512;37.764;2023-06-22T11:46:03;4.38;;;3.63;;
44197;SDS011;30157;55.512;37.764;2023-06-22T11:48:29;4.50;;;3.40;;
44197;SDS011;30157;55.512;37.764;2023-06-22T11:50:56;4.43;;;3.30;;
44197;SDS011;30157;55.512;37.764;2023-06-22T11:53:22;4.18;;;3.30;;
44197;SDS011;30157;55.512;37.764;2023-06-22T11:55:51;4.07;;;3.45;;
44197;SDS011;30157;55.512;37.764;2023-06-22T11:58:19;5.07;;;3.33;;
44197;SDS011;30157;55.512;37.764;2023-06-22T12:00:45;3.50;;;3.08;;
44197;SDS011;30157;55.512;37.764;2023-06-22T12:03:10;4.10;;;2.97;;
44197;SDS011;30157;55.512;37.764;2023-06-22T12:05:37;5.22;;;3.33;;
44197;SDS011;30157;55.512;37.764;2023-06-22T12:08:04;5.18;;;2.97;;
44197;SDS011;30157;55.512;37.764;2023-06-22T12:10:30;3.90;;;3.47;;
44197;SDS011;30157;55.512;37.764;2023-06-22T12:12:55;4.53;;;3.53;;
44197;SDS011;30157;55.512;37.764;2023-06-22T12:15:23;7.00;;;3.80;;
44197;SDS011;30157;55.512;37.764;2023-06-22T12:17:49;3.60;;;3.17;;
44197;SDS011;30157;55.512;37.764;2023-06-22T12:20:14;4.18;;;3.42;;
44197;SDS011;30157;55.512;37.764;2023-06-22T12:22:40;8.43;;;3.83;;
44197;SDS011;30157;55.512;37.764;2023-06-22T12:25:07;4.85;;;3.72;;
44197;SDS011;30157;55.512;37.764;2023-06-22T12:27:34;3.47;;;3.17;;
44197;SDS011;30157;55.512;37.764;2023-06-22T12:30:00;10.32;;;3.58;;
44197;SDS011;30157;55.512;37.764;2023-06-22T12:32:32;6.00;;;3.75;;
44197;SDS011;30157;55.512;37.764;2023-06-22T12:34:58;4.25;;;3.70;;
44197;SDS011;30157;55.512;37.764;2023-06-22T12:37:24;5.93;;;3.90;;
44197;SDS011;30157;55.512;37.764;2023-06-22T12:39:50;4.53;;;3.50;;
44197;SDS011;30157;55.512;37.764;2023-06-22T12:42:16;6.30;;;3.58;;
44197;SDS011;30157;55.512;37.764;2023-06-22T12:44:42;4.18;;;3.45;;
44197;SDS011;30157;55.512;37.764;2023-06-22T12:47:08;4.10;;;3.60;;
44197;SDS011;30157;55.512;37.764;2023-06-22T12:49:37;4.85;;;4.10;;
44197;SDS011;30157;55.512;37.764;2023-06-22T12:52:08;4.10;;;3.55;;
44197;SDS011;30157;55.512;37.764;2023-06-22T12:54:34;4.22;;;3.42;;
44197;SDS011;30157;55.512;37.764;2023-06-22T12:57:01;5.25;;;3.65;;
44197;SDS011;30157;55.512;37.764;2023-06-22T12:59:26;5.05;;;4.10;;
44197;SDS011;30157;55.512;37.764;2023-06-22T13:01:52;4.30;;;3.55;;
44197;SDS011;30157;55.512;37.764;2023-06-22T13:04:18;5.07;;;3.55;;
44197;SDS011;30157;55.512;37.764;2023-06-22T13:06:44;4.50;;;3.05;;
44197;SDS011;30157;55.512;37.764;2023-06-22T13:09:13;6.78;;;3.70;;
44197;SDS011;30157;55.512;37.764;2023-06-22T13:11:40;5.57;;;3.80;;
44197;SDS011;30157;55.512;37.764;2023-06-22T13:14:07;4.53;;;4.07;;
44197;SDS011;30157;55.512;37.764;2023-06-22T13:16:33;5.72;;;3.75;;
44197;SDS011;30157;55.512;37.764;2023-06-22T13:18:58;6.38;;;4.30;;
44197;SDS011;30157;55.512;37.764;2023-06-22T13:21:24;4.68;;;3.70;;
44197;SDS011;30157;55.512;37.764;2023-06-22T13:23:50;4.32;;;3.60;;
44197;SDS011;30157;55.512;37.764;2023-06-22T13:26:15;4.85;;;3.78;;
44197;SDS011;30157;55.512;37.764;2023-06-22T13:28:41;5.90;;;3.88;;
44197;SDS011;30157;55.512;37.764;2023-06-22T13:31:07;4.40;;;3.60;;
44197;SDS011;30157;55.512;37.764;2023-06-22T13:33:33;4.03;;;3.38;;
44197;SDS011;30157;55.512;37.764;2023-06-22T13:35:59;4.38;;;3.58;;
44197;SDS011;30157;55.512;37.764;2023-06-22T13:38:24;5.22;;;3.72;;
44197;SDS011;30157;55.512;37.764;2023-06-22T13:40:50;6.38;;;3.95;;
44197;SDS011;30157;55.512;37.764;2023-06-22T13:43:16;5.22;;;3.75;;
44197;SDS011;30157;55.512;37.764;2023-06-22T13:45:42;5.32;;;3.88;;
44197;SDS011;30157;55.512;37.764;2023-06-22T13:48:08;4.93;;;3.90;;
44197;SDS011;30157;55.512;37.764;2023-06-22T13:50:34;4.47;;;3.60;;
44197;SDS011;30157;55.512;37.764;2023-06-22T13:53:00;6.63;;;4.10;;
44197;SDS011;30157;55.512;37.764;2023-06-22T13:55:26;4.05;;;3.50;;
44197;SDS011;30157;55.512;37.764;2023-06-22T13:57:52;5.30;;;3.80;;
44197;SDS011;30157;55.512;37.764;2023-06-22T14:00:18;4.82;;;4.05;;
44197;SDS011;30157;55.512;37.764;2023-06-22T14:02:44;4.68;;;3.70;;
44197;SDS011;30157;55.512;37.764;2023-06-22T14:05:10;4.32;;;3.78;;
44197;SDS011;30157;55.512;37.764;2023-06-22T14:07:36;4.25;;;3.53;;
44197;SDS011;30157;55.512;37.764;2023-06-22T14:10:03;4.40;;;3.83;;
44197;SDS011;30157;55.512;37.764;2023-06-22T14:12:30;4.20;;;3.78;;
44197;SDS011;30157;55.512;37.764;2023-06-22T14:14:56;5.95;;;3.97;;
44197;SDS011;30157;55.512;37.764;2023-06-22T14:17:23;5.18;;;3.88;;
44197;SDS011;30157;55.512;37.764;2023-06-22T14:19:51;6.53;;;4.20;;
44197;SDS011;30157;55.512;37.764;2023-06-22T14:22:21;9.32;;;5.05;;
44197;SDS011;30157;55.512;37.764;2023-06-22T14:24:48;7.63;;;4.50;;
44197;SDS011;30157;55.512;37.764;2023-06-22T14:27:14;8.30;;;4.10;;
44197;SDS011;30157;55.512;37.764;2023-06-22T14:29:41;7.05;;;4.55;;
44197;SDS011;30157;55.512;37.764;2023-06-22T14:32:07;6.35;;;4.05;;
44197;SDS011;30157;55.512;37.764;2023-06-22T14:34:34;7.82;;;4.45;;
44197;SDS011;30157;55.512;37.764;2023-06-22T14:37:06;6.97;;;4.50;;